Time;durP1;ratioP1;P1;durP2;ratioP2;P2;SDS_P1;SDS_P2;PMS_P1;PMS_P2;Temp;Humidity;BMP_temperature;BMP_pressure;BME280_temperature;BME280_humidity;BME280_pressure;Samples;Min_cycle;Max_cycle;Signal;HPM_P1;HPM_P2
2023/01/17 00:02:14;;;;;;;2.42;1.65;;;-1.90;99.90;;;;;;5027544;28;20052;-66
2023/01/17 00:10:13;;;;;;;5.18;1.63;;;-1.90;99.90;;;;;;5016411;28;20492;-67
2023/01/17 00:12:44;;;;;;;2.60;1.40;;;-1.80;99.90;;;;;;5020778;28;20021;-67
2023/01/17 00:15:10;;;;;;;2.90;1.70;;;-1.70;99.90;;;;;;5015864;28;20397;-67
2023/01/17 00:17:35;;;;;;;6.25;1.67;;;-1.70;99.90;;;;;;5016186;28;20051;-68
2023/01/17 01:35:21;;;;;;;4.40;2.20;;;-3.70;99.90;;;;;;5017213;28;20036;-67
2023/01/17 01:37:46;;;;;;;3.65;1.80;;;-3.40;99.90;;;;;;5025465;28;20017;-67
2023/01/17 01:40:14;;;;;;;3.83;1.77;;;-3.40;99.90;;;;;;5018129;28;20029;-68
2023/01/17 01:42:58;;;;;;;3.10;1.80;;;-3.40;99.90;;;;;;5016700;28;20034;-66
2023/01/17 01:45:29;;;;;;;7.22;2.03;;;-3.40;99.90;;;;;;5016112;28;20498;-67
2023/01/17 01:48:05;;;;;;;11.70;4.10;;;-3.30;99.90;;;;;;5024165;28;20120;-67
2023/01/17 01:50:33;;;;;;;8.60;3.20;;;-3.20;99.90;;;;;;5013634;28;20605;-67
2023/01/17 01:53:03;;;;;;;13.98;4.50;;;-3.10;99.90;;;;;;5023368;28;20040;-67
2023/01/17 01:55:36;;;;;;;6.90;2.75;;;-3.00;99.90;;;;;;5023109;28;20030;-67
2023/01/17 01:58:10;;;;;;;5.28;2.10;;;-3.00;99.90;;;;;;5022139;28;20033;-67
2023/01/17 02:00:37;;;;;;;5.93;2.35;;;-3.00;99.90;;;;;;5014822;28;20030;-67
2023/01/17 02:03:12;;;;;;;10.07;3.35;;;-3.00;99.90;;;;;;5025672;28;20113;-67
2023/01/17 02:05:41;;;;;;;3.72;2.33;;;-3.00;99.90;;;;;;5023395;28;20029;-67
2023/01/17 02:08:11;;;;;;;3.00;1.50;;;-3.10;99.90;;;;;;5022569;28;20033;-67
2023/01/17 02:10:40;;;;;;;5.95;2.83;;;-3.20;99.90;;;;;;5016379;28;20050;-67
2023/01/17 02:13:08;;;;;;;3.28;1.75;;;-3.20;99.90;;;;;;5023315;28;20124;-67
2023/01/17 02:15:53;;;;;;;2.22;1.25;;;-3.20;99.90;;;;;;5027764;28;20024;-66
2023/01/17 02:18:36;;;;;;;3.00;1.60;;;-3.20;99.90;;;;;;5019584;28;20064;-66
2023/01/17 02:21:14;;;;;;;4.80;1.88;;;-3.30;99.90;;;;;;5021666;28;20033;-67
2023/01/17 02:24:17;;;;;;;8.32;2.45;;;-3.30;99.90;;;;;;5021365;28;20021;-67
2023/01/17 02:26:58;;;;;;;3.42;1.92;;;-3.20;99.90;;;;;;5023604;28;20025;-67
2023/01/17 02:30:10;;;;;;;2.80;1.70;;;-3.20;99.90;;;;;;5023331;28;20033;-67
2023/01/17 02:33:14;;;;;;;2.70;1.57;;;-3.20;99.90;;;;;;5026921;28;20030;-66
2023/01/17 02:35:39;;;;;;;6.22;2.03;;;-3.20;99.90;;;;;;5026681;28;20120;-67
2023/01/17 02:38:30;;;;;;;5.10;1.90;;;-3.30;99.90;;;;;;5028630;28;20112;-66
2023/01/17 02:41:06;;;;;;;3.80;1.85;;;-3.20;99.90;;;;;;5029341;28;20029;-66
2023/01/17 02:43:33;;;;;;;2.58;1.50;;;-3.20;99.90;;;;;;5027509;28;20087;-66
2023/01/17 02:45:59;;;;;;;2.65;1.90;;;-3.20;99.90;;;;;;5025567;28;20029;-67
2023/01/17 02:48:28;;;;;;;3.45;2.03;;;-3.40;99.90;;;;;;5029555;28;20079;-66
2023/01/17 02:51:21;;;;;;;2.20;1.83;;;-3.50;99.90;;;;;;5031502;28;20048;-66
2023/01/17 02:54:15;;;;;;;2.60;1.65;;;-3.40;99.90;;;;;;5023025;28;20021;-68
2023/01/17 02:56:55;;;;;;;3.78;2.50;;;-3.50;99.90;;;;;;5026288;28;20149;-65
2023/01/17 02:59:30;;;;;;;3.80;1.75;;;-3.50;99.90;;;;;;5020963;28;20045;-66
2023/01/17 03:02:24;;;;;;;6.82;2.40;;;-3.40;99.90;;;;;;5018451;28;20482;-66
2023/01/17 03:05:07;;;;;;;4.13;1.75;;;-3.40;99.90;;;;;;5030865;28;20107;-66
2023/01/17 03:07:33;;;;;;;8.55;2.33;;;-3.50;99.90;;;;;;5022994;28;20026;-66
2023/01/17 03:10:03;;;;;;;5.13;2.03;;;-3.50;99.90;;;;;;5029576;28;20029;-67
2023/01/17 03:12:31;;;;;;;5.38;2.20;;;-3.50;99.90;;;;;;5017811;28;20048;-67
2023/01/17 03:14:57;;;;;;;5.97;2.60;;;-3.50;99.90;;;;;;5030278;28;21802;-66
2023/01/17 03:17:27;;;;;;;3.90;2.30;;;-3.50;99.90;;;;;;5022855;28;20030;-67
2023/01/17 03:19:53;;;;;;;5.35;2.60;;;-3.50;99.90;;;;;;5030926;28;20452;-66
2023/01/17 03:22:18;;;;;;;4.72;2.70;;;-3.50;99.90;;;;;;5021633;28;20125;-66
2023/01/17 03:24:44;;;;;;;4.38;2.95;;;-3.50;99.90;;;;;;5027371;28;20378;-66
2023/01/17 03:27:10;;;;;;;3.38;1.95;;;-3.50;99.90;;;;;;5028264;28;20036;-65
2023/01/17 03:29:36;;;;;;;4.47;1.98;;;-3.50;99.90;;;;;;5025934;28;20155;-66
2023/01/17 03:32:02;;;;;;;3.45;2.13;;;-3.70;99.90;;;;;;5028781;28;20480;-66
2023/01/17 03:34:28;;;;;;;5.18;2.25;;;-3.80;99.90;;;;;;5022136;28;20024;-67
2023/01/17 03:36:54;;;;;;;4.50;2.80;;;-4.00;99.90;;;;;;5026560;28;20032;-66
2023/01/17 03:39:19;;;;;;;6.60;2.47;;;-4.10;99.90;;;;;;5027908;28;20030;-67
2023/01/17 03:41:45;;;;;;;5.85;2.60;;;-4.10;99.90;;;;;;5022908;28;20115;-66
2023/01/17 03:44:11;;;;;;;3.83;2.60;;;-4.20;99.90;;;;;;5027906;28;20046;-65
2023/01/17 03:46:36;;;;;;;5.38;2.97;;;-3.90;99.90;;;;;;5030954;28;20028;-66
2023/01/17 03:49:02;;;;;;;2.78;2.10;;;-3.90;99.90;;;;;;5028132;28;20453;-66
2023/01/17 03:51:28;;;;;;;5.60;2.67;;;-3.90;99.90;;;;;;5014620;28;20117;-66
2023/01/17 03:53:54;;;;;;;3.55;2.38;;;-3.90;99.90;;;;;;5018494;28;20025;-66
2023/01/17 03:56:19;;;;;;;3.17;2.05;;;-3.90;99.90;;;;;;5026208;28;20500;-66
2023/01/17 03:58:45;;;;;;;2.28;1.90;;;-4.00;99.90;;;;;;5031166;28;20381;-66
2023/01/17 04:01:11;;;;;;;3.67;1.80;;;-4.10;99.90;;;;;;5025154;28;20585;-67
2023/01/17 04:03:38;;;;;;;2.72;1.92;;;-4.20;99.90;;;;;;5021532;28;20026;-66
2023/01/17 04:06:04;;;;;;;2.17;1.67;;;-4.30;99.90;;;;;;5020594;28;20057;-66
2023/01/17 04:08:30;;;;;;;3.53;2.15;;;-4.20;99.90;;;;;;5012467;28;20032;-67
2023/01/17 04:10:55;;;;;;;2.95;2.00;;;-4.10;99.90;;;;;;5024113;28;20128;-67
2023/01/17 04:13:21;;;;;;;3.20;2.13;;;-4.00;99.90;;;;;;5022816;28;20397;-67
2023/01/17 04:15:49;;;;;;;3.65;2.47;;;-4.00;99.90;;;;;;5018152;28;20022;-66
2023/01/17 04:18:19;;;;;;;6.47;3.30;;;-4.00;99.90;;;;;;5025289;28;20485;-66
2023/01/17 04:20:46;;;;;;;5.38;3.30;;;-3.90;99.90;;;;;;5020029;28;20017;-67
2023/01/17 04:23:11;;;;;;;5.57;2.97;;;-3.90;99.90;;;;;;5012787;28;20034;-65
2023/01/17 04:25:37;;;;;;;4.95;2.70;;;-3.90;99.90;;;;;;5023468;28;20040;-67
2023/01/17 04:28:03;;;;;;;3.58;2.65;;;-3.80;99.90;;;;;;5011431;28;20120;-67
2023/01/17 04:30:30;;;;;;;4.35;2.60;;;-3.90;99.90;;;;;;5025301;28;20022;-65
2023/01/17 04:32:57;;;;;;;4.80;3.08;;;-3.90;99.90;;;;;;5027200;28;20025;-66
2023/01/17 04:35:23;;;;;;;4.40;2.78;;;-3.90;99.90;;;;;;5020690;28;20037;-67
2023/01/17 04:37:49;;;;;;;5.90;3.17;;;-3.90;99.90;;;;;;5021020;28;20111;-67
2023/01/17 04:40:15;;;;;;;7.45;3.80;;;-3.90;99.90;;;;;;5022815;28;20068;-66
2023/01/17 04:42:44;;;;;;;5.70;3.80;;;-3.80;99.90;;;;;;5018180;28;20084;-68
2023/01/17 04:45:10;;;;;;;5.53;3.78;;;-3.70;99.90;;;;;;5024273;28;20200;-66
2023/01/17 04:47:36;;;;;;;7.15;4.50;;;-3.60;99.90;;;;;;5020259;28;20490;-66
2023/01/17 04:50:02;;;;;;;8.32;5.28;;;-3.60;99.90;;;;;;5026984;28;20068;-65
2023/01/17 04:52:28;;;;;;;6.72;4.70;;;-3.50;99.90;;;;;;5020461;28;20101;-67
2023/01/17 04:54:55;;;;;;;7.93;5.20;;;-3.40;99.90;;;;;;5022550;28;20497;-66
2023/01/17 04:57:21;;;;;;;16.85;6.97;;;-3.40;99.90;;;;;;5021974;28;20029;-66
2023/01/17 04:59:46;;;;;;;9.48;5.70;;;-3.40;99.90;;;;;;5016799;28;20035;-67
2023/01/17 05:02:13;;;;;;;9.23;4.85;;;-3.40;99.90;;;;;;5024382;28;20040;-66
2023/01/17 05:04:39;;;;;;;7.32;4.72;;;-3.30;99.90;;;;;;5024865;28;20032;-68
2023/01/17 05:07:05;;;;;;;6.95;4.97;;;-3.30;99.90;;;;;;5027318;28;20037;-66
2023/01/17 05:09:31;;;;;;;5.93;4.10;;;-3.30;99.90;;;;;;5026142;28;20067;-66
2023/01/17 05:11:57;;;;;;;8.77;4.18;;;-3.40;99.90;;;;;;5028700;28;20029;-70
2023/01/17 05:14:25;;;;;;;8.63;5.32;;;-3.50;99.90;;;;;;5022349;28;20091;-66
2023/01/17 05:16:57;;;;;;;8.13;4.75;;;-3.50;99.90;;;;;;5019809;28;20021;-67
2023/01/17 05:19:24;;;;;;;10.18;5.60;;;-3.50;99.90;;;;;;5026725;28;20044;-65
2023/01/17 05:21:50;;;;;;;8.38;5.20;;;-3.40;99.90;;;;;;5023185;28;20034;-67
2023/01/17 05:24:17;;;;;;;7.68;4.63;;;-3.40;99.90;;;;;;5026612;28;20045;-67
2023/01/17 05:26:43;;;;;;;8.27;4.72;;;-3.50;99.90;;;;;;5022283;28;20033;-66
2023/01/17 05:29:09;;;;;;;10.88;5.63;;;-3.50;99.90;;;;;;5026756;28;20080;-66
2023/01/17 05:31:35;;;;;;;10.70;6.20;;;-3.40;99.90;;;;;;5023832;28;20033;-67
2023/01/17 05:34:01;;;;;;;12.30;5.47;;;-3.40;99.90;;;;;;5026482;28;20084;-67
2023/01/17 05:36:27;;;;;;;11.88;6.45;;;-3.40;99.90;;;;;;5023973;28;20436;-66
2023/01/17 05:38:53;;;;;;;12.02;5.57;;;-3.50;99.90;;;;;;5012184;28;20069;-67
2023/01/17 05:41:19;;;;;;;9.93;5.47;;;-3.50;99.90;;;;;;5016319;28;20057;-66
2023/01/17 05:43:44;;;;;;;7.97;5.25;;;-3.40;99.90;;;;;;5025029;28;20104;-66
2023/01/17 05:46:10;;;;;;;9.27;5.90;;;-3.40;99.90;;;;;;5027318;28;20030;-67
2023/01/17 05:48:36;;;;;;;8.95;6.18;;;-3.40;99.90;;;;;;5026415;28;20030;-66
2023/01/17 05:51:02;;;;;;;10.82;5.90;;;-3.40;99.90;;;;;;5022455;28;20105;-66
2023/01/17 05:53:27;;;;;;;10.63;5.63;;;-3.40;99.90;;;;;;5022946;28;20030;-66
2023/01/17 05:55:53;;;;;;;9.65;5.57;;;-3.40;99.90;;;;;;5023180;28;20037;-67
2023/01/17 05:58:21;;;;;;;7.45;5.10;;;-3.40;99.90;;;;;;5028881;28;20033;-67
2023/01/17 06:00:47;;;;;;;7.28;5.20;;;-3.50;99.90;;;;;;5017298;28;20025;-66
2023/01/17 06:03:14;;;;;;;9.30;5.00;;;-3.50;99.90;;;;;;5027800;28;20052;-66
2023/01/17 06:05:40;;;;;;;11.63;5.10;;;-3.60;99.90;;;;;;5029910;28;20022;-66
2023/01/17 06:08:06;;;;;;;8.90;5.28;;;-3.60;99.90;;;;;;5030806;28;20028;-67
2023/01/17 06:10:33;;;;;;;14.40;6.00;;;-3.60;99.90;;;;;;5031006;28;20034;-66
2023/01/17 06:13:04;;;;;;;10.40;5.68;;;-3.60;99.90;;;;;;5026033;28;20030;-67
2023/01/17 06:15:31;;;;;;;10.25;5.68;;;-3.60;99.90;;;;;;5026795;28;20120;-66
2023/01/17 06:17:56;;;;;;;11.63;5.45;;;-3.60;99.90;;;;;;5016325;28;20030;-66
2023/01/17 06:20:22;;;;;;;10.32;5.75;;;-3.50;99.90;;;;;;5020194;28;20048;-67
2023/01/17 06:22:48;;;;;;;10.27;5.95;;;-3.50;99.90;;;;;;5024514;28;20073;-66
2023/01/17 06:25:14;;;;;;;8.93;5.65;;;-3.40;99.90;;;;;;5024930;28;20385;-67
2023/01/17 06:27:40;;;;;;;10.43;5.53;;;-3.40;99.90;;;;;;5031857;28;20461;-66
2023/01/17 06:30:06;;;;;;;8.07;5.18;;;-3.30;99.90;;;;;;5017693;28;20036;-67
2023/01/17 06:32:32;;;;;;;7.45;5.53;;;-3.30;99.90;;;;;;5029102;28;20033;-66
2023/01/17 06:34:58;;;;;;;7.82;5.28;;;-3.40;99.90;;;;;;5026570;28;20535;-67
2023/01/17 06:37:23;;;;;;;11.25;5.30;;;-3.40;99.90;;;;;;5020055;28;20033;-67
2023/01/17 06:39:49;;;;;;;10.00;5.22;;;-3.30;99.90;;;;;;5026544;28;20484;-67
2023/01/17 06:42:15;;;;;;;12.40;5.22;;;-3.40;99.90;;;;;;5024869;28;20037;-65
2023/01/17 06:44:41;;;;;;;11.27;5.57;;;-3.40;99.90;;;;;;5026706;28;20045;-67
2023/01/17 06:47:06;;;;;;;7.72;5.32;;;-3.30;99.90;;;;;;5021717;28;20030;-67
2023/01/17 06:49:32;;;;;;;11.20;5.75;;;-3.30;99.90;;;;;;5030480;28;20503;-67
2023/01/17 06:52:04;;;;;;;8.25;5.40;;;-3.30;99.90;;;;;;5024268;28;20036;-66
2023/01/17 06:54:30;;;;;;;9.57;5.60;;;-3.20;99.90;;;;;;5024804;28;20112;-67
2023/01/17 06:56:57;;;;;;;10.65;5.80;;;-3.30;99.90;;;;;;5027642;28;20125;-65
2023/01/17 06:59:23;;;;;;;10.45;6.40;;;-3.20;99.90;;;;;;5027354;28;20029;-67
2023/01/17 07:01:49;;;;;;;9.90;5.82;;;-3.20;99.90;;;;;;5027135;28;20445;-68
2023/01/17 07:04:14;;;;;;;8.93;5.72;;;-3.30;99.90;;;;;;5030878;28;20049;-66
2023/01/17 07:06:42;;;;;;;9.15;5.35;;;-3.30;99.90;;;;;;5031366;28;20059;-67
2023/01/17 07:09:10;;;;;;;9.52;4.93;;;-3.20;99.90;;;;;;5027719;28;20064;-67
2023/01/17 07:11:36;;;;;;;8.55;5.07;;;-3.20;99.90;;;;;;5046275;28;20574;-68
2023/01/17 07:14:02;;;;;;;14.25;5.60;;;-3.20;99.90;;;;;;5031302;28;20033;-66
2023/01/17 07:16:28;;;;;;;8.23;5.13;;;-3.30;99.90;;;;;;5027239;28;20560;-66
2023/01/17 07:18:55;;;;;;;8.05;5.07;;;-3.20;99.90;;;;;;5028739;28;20021;-67
2023/01/17 07:21:21;;;;;;;7.82;5.03;;;-3.10;99.90;;;;;;5028218;28;20033;-68
2023/01/17 07:23:47;;;;;;;10.20;4.65;;;-3.00;99.90;;;;;;5023753;28;20037;-68
2023/01/17 07:26:13;;;;;;;11.75;5.30;;;-3.00;99.90;;;;;;5020230;28;20026;-67
2023/01/17 07:28:39;;;;;;;7.50;4.35;;;-3.00;99.90;;;;;;5030935;28;20048;-67
2023/01/17 07:31:06;;;;;;;6.70;4.30;;;-3.00;99.90;;;;;;5024730;28;20477;-66
2023/01/17 07:33:33;;;;;;;7.15;4.07;;;-3.00;99.90;;;;;;5026596;28;20042;-67
2023/01/17 07:36:06;;;;;;;8.23;3.60;;;-3.00;99.90;;;;;;5030561;28;20040;-67
2023/01/17 07:38:32;;;;;;;7.30;3.80;;;-2.90;99.90;;;;;;5027590;28;20138;-67
2023/01/17 07:40:59;;;;;;;4.57;2.85;;;-2.90;99.90;;;;;;5021430;28;20513;-66
2023/01/17 07:43:25;;;;;;;7.60;3.35;;;-3.00;99.90;;;;;;5025889;28;20084;-66
2023/01/17 07:45:51;;;;;;;6.68;2.83;;;-3.00;99.90;;;;;;5026074;28;20111;-68
2023/01/17 07:48:18;;;;;;;5.32;2.60;;;-3.00;99.90;;;;;;5028476;28;20620;-67
2023/01/17 07:50:44;;;;;;;9.65;3.30;;;-3.10;99.90;;;;;;5027194;28;20083;-67
2023/01/17 07:53:10;;;;;;;6.95;3.70;;;-3.10;99.90;;;;;;5028060;28;20025;-67
2023/01/17 07:55:36;;;;;;;7.55;3.70;;;-3.00;99.90;;;;;;5027622;28;20018;-66
2023/01/17 07:58:02;;;;;;;6.53;3.35;;;-3.00;99.90;;;;;;5029162;28;20032;-69
2023/01/17 08:00:28;;;;;;;5.30;3.30;;;-2.90;99.90;;;;;;5025602;28;20493;-67
2023/01/17 08:02:58;;;;;;;4.80;3.20;;;-2.90;99.90;;;;;;5026773;28;20370;-65
2023/01/17 08:05:24;;;;;;;4.20;3.00;;;-2.90;99.90;;;;;;5027630;28;20048;-69
2023/01/17 08:07:53;;;;;;;7.07;2.88;;;-2.80;99.90;;;;;;5027653;28;20405;-65
2023/01/17 08:10:23;;;;;;;5.97;3.30;;;-2.80;99.90;;;;;;5019901;28;20037;-67
2023/01/17 08:12:54;;;;;;;10.68;4.40;;;-2.90;99.90;;;;;;5027746;28;20473;-67
2023/01/17 08:15:20;;;;;;;6.82;3.63;;;-2.90;99.90;;;;;;5025544;28;20032;-67
2023/01/17 08:17:52;;;;;;;10.55;5.72;;;-2.80;99.90;;;;;;5028610;28;20041;-68
2023/01/17 08:20:26;;;;;;;;;;;-2.90;99.90;;;;;;5026685;28;20101;-68
2023/01/17 08:22:59;;;;;;;9.32;5.13;;;-2.90;99.90;;;;;;5029305;28;19924;-69
2023/01/17 08:25:25;;;;;;;7.97;4.50;;;-2.80;99.90;;;;;;5027593;28;20029;-68
2023/01/17 08:28:01;;;;;;;7.28;4.15;;;-2.80;99.90;;;;;;5029254;28;20021;-69
2023/01/17 08:30:30;;;;;;;6.10;3.47;;;-2.70;99.90;;;;;;5022357;28;20496;-69
2023/01/17 08:32:56;;;;;;;6.50;4.43;;;-2.60;99.90;;;;;;5027794;28;20024;-70
2023/01/17 08:35:22;;;;;;;11.77;4.30;;;-2.50;99.90;;;;;;5029041;28;20021;-70
2023/01/17 08:37:53;;;;;;;13.07;5.30;;;-2.50;99.90;;;;;;5025885;28;20053;-69
2023/01/17 08:40:18;;;;;;;11.30;5.13;;;-2.50;99.90;;;;;;5015910;28;20025;-71
2023/01/17 08:42:52;;;;;;;8.63;4.43;;;-2.40;99.90;;;;;;5029642;28;20527;-69
2023/01/17 08:45:18;;;;;;;8.52;3.70;;;-2.40;99.90;;;;;;5022119;28;20034;-70
2023/01/17 08:47:52;;;;;;;9.05;4.05;;;-2.30;99.90;;;;;;5028181;28;20048;-70
2023/01/17 08:50:21;;;;;;;9.10;4.03;;;-2.20;99.90;;;;;;5027688;28;20033;-69
2023/01/17 08:52:53;;;;;;;8.45;4.72;;;-2.10;99.90;;;;;;5026354;28;20039;-68
2023/01/17 08:55:19;;;;;;;9.13;4.50;;;-2.10;99.90;;;;;;5021387;28;20026;-67
2023/01/17 08:57:51;;;;;;;11.25;6.88;;;-2.10;99.90;;;;;;5023280;28;20040;-66
2023/01/17 09:00:17;;;;;;;15.65;5.95;;;-2.00;99.90;;;;;;5021174;28;20083;-68
2023/01/17 09:02:43;;;;;;;8.18;4.68;;;-1.90;99.90;;;;;;5018097;28;20076;-68
2023/01/17 09:05:10;;;;;;;11.25;5.18;;;-1.90;99.90;;;;;;5017630;28;20053;-67
2023/01/17 09:07:35;;;;;;;10.23;5.57;;;-1.90;99.90;;;;;;5028923;28;20029;-67
2023/01/17 09:10:01;;;;;;;11.40;5.20;;;-1.90;99.90;;;;;;5020499;28;20083;-67
2023/01/17 09:12:31;;;;;;;10.48;3.97;;;-1.90;99.90;;;;;;5020937;28;20528;-68
2023/01/17 09:14:57;;;;;;;9.93;4.35;;;-1.80;99.90;;;;;;5028548;28;20120;-68
2023/01/17 09:17:23;;;;;;;7.15;4.18;;;-1.80;99.90;;;;;;5024173;28;20112;-68
2023/01/17 09:19:50;;;;;;;8.05;3.17;;;-1.60;99.90;;;;;;5023694;28;20052;-69
2023/01/17 09:22:16;;;;;;;6.70;2.97;;;-1.60;99.90;;;;;;5020264;28;20091;-68
2023/01/17 09:24:42;;;;;;;8.18;2.63;;;-1.70;99.90;;;;;;5025448;28;20034;-69
2023/01/17 09:27:07;;;;;;;7.93;3.45;;;-1.70;99.90;;;;;;5022408;28;20389;-67
2023/01/17 09:29:33;;;;;;;5.75;3.08;;;-1.60;99.90;;;;;;5025566;28;20399;-68
2023/01/17 09:32:00;;;;;;;6.28;3.75;;;-1.50;99.90;;;;;;5019859;28;20040;-68
2023/01/17 09:34:26;;;;;;;7.75;3.70;;;-1.40;99.90;;;;;;5016682;28;20029;-67
2023/01/17 09:36:52;;;;;;;7.68;3.40;;;-1.40;99.90;;;;;;5023122;28;20619;-67
2023/01/17 09:39:18;;;;;;;6.07;3.05;;;-1.30;99.90;;;;;;5024886;28;20496;-69
2023/01/17 09:42:13;;;;;;;7.70;3.95;;;-1.30;99.90;;;;;;5023889;28;20052;-68
2023/01/17 09:44:50;;;;;;;9.90;3.92;;;-1.30;99.90;;;;;;5023753;28;20045;-69
2023/01/17 09:47:35;;;;;;;7.20;4.13;;;-1.20;99.90;;;;;;5024663;28;20052;-63
2023/01/17 09:50:31;;;;;;;10.02;4.15;;;-1.20;99.90;;;;;;5019377;28;20025;-65
2023/01/17 09:53:05;;;;;;;9.55;4.75;;;-1.10;99.90;;;;;;5022696;28;20034;-65
2023/01/17 09:55:39;;;;;;;8.73;4.15;;;-1.10;99.90;;;;;;5014731;28;20017;-63
2023/01/17 09:58:10;;;;;;;10.85;4.78;;;-1.00;99.90;;;;;;5018699;28;20022;-63
2023/01/17 10:00:46;;;;;;;10.98;4.28;;;-0.80;99.90;;;;;;5020523;28;20049;-63
2023/01/17 10:03:51;;;;;;;11.02;4.40;;;-0.70;99.90;;;;;;5017691;28;20071;-64
2023/01/17 10:06:35;;;;;;;7.75;4.03;;;-0.70;99.90;;;;;;5017639;28;20072;-63
2023/01/17 10:09:08;;;;;;;8.23;4.40;;;-0.60;99.90;;;;;;5019350;28;20026;-65
2023/01/17 10:12:18;;;;;;;6.88;3.60;;;-0.60;99.90;;;;;;5018975;28;20029;-63
2023/01/17 10:15:22;;;;;;;10.07;3.90;;;-0.60;99.90;;;;;;4969473;28;20414;-64
2023/01/17 10:17:53;;;;;;;5.97;3.65;;;-0.50;99.90;;;;;;4967470;28;20038;-62
2023/01/17 10:20:37;;;;;;;7.45;3.70;;;-0.40;99.90;;;;;;4963251;28;20037;-62
2023/01/17 10:23:13;;;;;;;5.07;3.10;;;-0.50;99.90;;;;;;4965479;28;20077;-68
2023/01/17 10:25:44;;;;;;;5.78;2.63;;;-0.40;99.90;;;;;;4959475;28;20036;-63
2023/01/17 10:28:15;;;;;;;6.85;3.40;;;-0.40;99.90;;;;;;4964162;28;20070;-64
2023/01/17 10:31:04;;;;;;;4.63;3.00;;;-0.40;99.90;;;;;;4965766;28;20456;-64
2023/01/17 10:33:52;;;;;;;6.80;3.17;;;-0.30;99.90;;;;;;4965347;28;20199;-66
2023/01/17 10:36:28;;;;;;;3.97;2.40;;;-0.30;99.90;;;;;;4965850;28;20116;-64
2023/01/17 10:39:01;;;;;;;6.70;3.13;;;-0.20;99.90;;;;;;4966151;28;20043;-64
2023/01/17 10:41:33;;;;;;;6.78;3.40;;;-0.20;99.90;;;;;;4964212;28;20045;-62
2023/01/17 10:44:24;;;;;;;8.38;3.63;;;-0.10;99.90;;;;;;4963046;28;20130;-64
2023/01/17 10:47:09;;;;;;;5.63;3.22;;;0.10;99.90;;;;;;5028283;28;20033;-63
2023/01/17 10:49:39;;;;;;;4.97;2.78;;;0.10;99.90;;;;;;5027104;28;20060;-65
2023/01/17 10:52:35;;;;;;;7.78;2.83;;;0.20;99.90;;;;;;5029456;28;20064;-64
2023/01/17 10:55:12;;;;;;;7.47;3.13;;;0.20;99.90;;;;;;5023263;28;20385;-62
2023/01/17 10:57:43;;;;;;;6.55;2.70;;;0.20;99.90;;;;;;5039713;28;20120;-64
2023/01/17 11:00:42;;;;;;;7.82;3.08;;;0.30;99.90;;;;;;5019544;28;20123;-62
2023/01/17 11:03:14;;;;;;;5.10;3.05;;;0.40;99.90;;;;;;5015260;28;20046;-64
2023/01/17 11:05:41;;;;;;;4.65;2.50;;;0.60;99.90;;;;;;5027189;28;20065;-62
2023/01/17 11:08:09;;;;;;;9.32;3.13;;;0.70;99.90;;;;;;5018544;28;20100;-63
2023/01/17 11:10:41;;;;;;;5.95;3.22;;;0.80;99.90;;;;;;5025148;28;20064;-63
2023/01/17 11:13:36;;;;;;;11.77;3.75;;;0.80;99.90;;;;;;5020237;28;20033;-63
2023/01/17 11:16:04;;;;;;;10.48;3.35;;;1.00;99.90;;;;;;5019480;28;20386;-63
2023/01/17 11:18:33;;;;;;;12.20;3.53;;;1.00;99.90;;;;;;5020195;28;20046;-63
2023/01/17 11:21:16;;;;;;;11.32;3.28;;;1.10;99.90;;;;;;5026001;28;20397;-63
2023/01/17 11:23:43;;;;;;;;;;;1.20;99.90;;;;;;5025528;28;20029;-64
2023/01/17 11:26:19;;;;;;;7.72;2.83;;;1.30;99.90;;;;;;5025379;28;20423;-63
2023/01/17 11:28:45;;;;;;;22.98;5.25;;;1.40;99.90;;;;;;5025679;28;20501;-63
2023/01/17 11:31:15;;;;;;;7.07;2.75;;;1.50;99.90;;;;;;5020334;28;20033;-64
2023/01/17 11:33:55;;;;;;;16.20;3.70;;;1.70;99.90;;;;;;5026479;28;20373;-65
2023/01/17 11:36:26;;;;;;;33.58;10.80;;;2.10;99.90;;;;;;5023191;28;20045;-64
2023/01/17 11:39:16;;;;;;;21.35;3.92;;;2.40;99.90;;;;;;5024524;28;20493;-63
2023/01/17 11:41:44;;;;;;;41.50;4.60;;;2.60;99.90;;;;;;5026707;28;20482;-64
2023/01/17 11:44:34;;;;;;;12.23;3.22;;;2.80;99.90;;;;;;5021200;28;20037;-63
2023/01/17 11:47:14;;;;;;;11.65;2.53;;;2.70;99.90;;;;;;5021719;28;20091;-62
2023/01/17 11:49:42;;;;;;;8.80;3.05;;;2.80;99.90;;;;;;5026591;28;20029;-62
2023/01/17 11:52:08;;;;;;;8.93;3.00;;;2.70;99.90;;;;;;5021745;28;20037;-63
2023/01/17 11:54:39;;;;;;;10.70;2.35;;;2.70;99.90;;;;;;5024692;28;20401;-64
2023/01/17 11:57:16;;;;;;;8.30;2.33;;;2.70;99.90;;;;;;5021833;28;20041;-64
2023/01/17 11:59:43;;;;;;;8.35;2.97;;;2.80;99.90;;;;;;5025589;28;20072;-64
2023/01/17 12:02:30;;;;;;;10.43;2.35;;;2.80;99.90;;;;;;5021817;28;20045;-64
2023/01/17 12:05:09;;;;;;;13.20;3.20;;;2.80;99.90;;;;;;5028249;28;20037;-64
2023/01/17 12:08:06;;;;;;;8.00;2.65;;;3.00;99.90;;;;;;5026713;28;20033;-63
2023/01/17 12:10:55;;;;;;;10.80;3.03;;;3.00;99.90;;;;;;5030202;28;20400;-63
2023/01/17 12:16:30;;;;;;;20.80;3.97;;;3.20;99.90;;;;;;5019272;28;20112;-63
2023/01/17 12:19:12;;;;;;;19.98;4.20;;;3.50;99.90;;;;;;5026338;28;20069;-64
2023/01/17 12:22:11;;;;;;;12.93;3.40;;;3.80;99.90;;;;;;5021584;28;20057;-64
2023/01/17 12:24:40;;;;;;;18.40;4.35;;;3.90;99.90;;;;;;5020340;28;20038;-64
2023/01/17 12:27:25;;;;;;;11.40;3.65;;;3.90;99.90;;;;;;5023864;28;20065;-62
2023/01/17 12:30:02;;;;;;;5.30;3.65;;;3.90;99.90;;;;;;5026779;28;20035;-63
2023/01/17 12:32:52;;;;;;;15.75;3.90;;;4.00;99.90;;;;;;5023388;28;20109;-63
2023/01/17 12:35:37;;;;;;;6.85;3.25;;;4.10;99.90;;;;;;5021446;28;20032;-65
2023/01/17 12:38:09;;;;;;;15.02;3.75;;;4.10;99.90;;;;;;5018576;28;20055;-64
2023/01/17 12:41:15;;;;;;;24.98;4.30;;;4.30;99.90;;;;;;5024292;28;20496;-62
2023/01/17 12:43:43;;;;;;;20.42;4.63;;;4.40;99.90;;;;;;5018701;28;20049;-63
2023/01/17 12:46:27;;;;;;;13.77;4.10;;;4.70;99.90;;;;;;5020177;28;20500;-64
2023/01/17 12:49:09;;;;;;;5.95;2.60;;;5.00;99.90;;;;;;5020709;28;20033;-64
2023/01/17 12:51:40;;;;;;;6.22;2.72;;;5.40;99.90;;;;;;5017026;28;20025;-63
2023/01/17 12:54:23;;;;;;;37.88;5.63;;;5.50;99.90;;;;;;5021529;28;20113;-65
2023/01/17 12:56:55;;;;;;;38.05;5.53;;;5.60;99.90;;;;;;5014350;28;20037;-65
2023/01/17 12:59:43;;;;;;;17.90;3.80;;;5.90;99.90;;;;;;5021325;28;20025;-64
2023/01/17 13:02:44;;;;;;;13.13;2.70;;;5.80;99.90;;;;;;5018410;28;20076;-66
2023/01/17 13:05:22;;;;;;;6.72;1.70;;;5.70;99.90;;;;;;5011755;28;20033;-64
2023/01/17 13:08:01;;;;;;;3.25;1.52;;;5.40;99.90;;;;;;5012439;28;20480;-64
2023/01/17 13:10:59;;;;;;;6.53;1.40;;;5.30;99.90;;;;;;5020814;28;20033;-63
2023/01/17 13:13:27;;;;;;;19.88;2.35;;;5.30;99.90;;;;;;5022728;28;20070;-64
2023/01/17 13:16:33;;;;;;;12.43;1.13;;;5.10;99.90;;;;;;5021494;28;20466;-63
2023/01/17 13:19:12;;;;;;;9.18;1.27;;;4.90;99.90;;;;;;5000822;28;20048;-64
2023/01/17 13:21:39;;;;;;;1.98;1.40;;;4.60;99.90;;;;;;5024783;28;20424;-66
2023/01/17 13:24:41;;;;;;;6.70;1.40;;;4.60;99.90;;;;;;5025264;28;20068;-63
2023/01/17 13:27:48;;;;;;;11.52;1.92;;;4.50;99.90;;;;;;5020480;28;20036;-62
2023/01/17 13:30:28;;;;;;;10.63;1.77;;;4.40;99.90;;;;;;5019078;28;20548;-64
2023/01/17 13:32:57;;;;;;;14.45;2.22;;;4.30;99.90;;;;;;5024853;28;20393;-64
2023/01/17 13:35:56;;;;;;;14.85;2.13;;;4.20;99.90;;;;;;5020504;28;20026;-64
2023/01/17 13:38:53;;;;;;;12.18;1.95;;;4.20;99.90;;;;;;5015273;28;20068;-65
2023/01/17 13:41:50;;;;;;;22.08;2.95;;;4.20;99.90;;;;;;5019306;28;20045;-64
2023/01/17 13:44:25;;;;;;;7.57;1.90;;;4.20;99.90;;;;;;5021006;28;20054;-64
2023/01/17 13:47:17;;;;;;;15.38;2.95;;;4.20;99.90;;;;;;5020226;28;20413;-64
2023/01/17 13:49:55;;;;;;;11.50;2.42;;;4.30;99.90;;;;;;5013886;28;20163;-64
2023/01/17 13:52:22;;;;;;;13.60;1.92;;;4.30;99.90;;;;;;5018621;28;20032;-63
2023/01/17 13:54:50;;;;;;;10.30;2.08;;;4.30;99.90;;;;;;5022218;28;20026;-64
2023/01/17 13:57:25;;;;;;;11.80;2.58;;;4.30;99.90;;;;;;5019512;28;20030;-64
2023/01/17 13:59:56;;;;;;;19.08;2.53;;;4.30;99.90;;;;;;5022493;28;20049;-65
2023/01/17 14:02:30;;;;;;;3.08;1.35;;;4.30;99.90;;;;;;5024799;28;20044;-64
2023/01/17 14:05:16;;;;;;;20.25;3.22;;;4.30;99.90;;;;;;5015967;28;20124;-64
2023/01/17 14:08:04;;;;;;;10.98;2.63;;;4.20;99.90;;;;;;5015246;28;20062;-66
2023/01/17 14:10:41;;;;;;;6.38;1.92;;;4.10;99.90;;;;;;5017532;28;20085;-65
2023/01/17 14:13:36;;;;;;;11.10;2.47;;;3.90;99.90;;;;;;5018548;28;20489;-64
2023/01/17 14:16:22;;;;;;;9.43;2.70;;;3.90;99.90;;;;;;5020183;28;20350;-64
2023/01/17 14:18:49;;;;;;;11.43;2.28;;;3.70;99.90;;;;;;5020773;28;20125;-65
2023/01/17 14:21:22;;;;;;;29.60;3.85;;;3.60;99.90;;;;;;5030833;28;20045;-66
2023/01/17 14:23:57;;;;;;;22.65;3.67;;;3.50;99.90;;;;;;5022584;28;20052;-64
2023/01/17 14:26:29;;;;;;;26.95;3.78;;;3.40;99.90;;;;;;5021087;28;20021;-63
2023/01/17 14:28:57;;;;;;;12.60;3.45;;;3.30;99.90;;;;;;5033298;28;20049;-63
2023/01/17 14:31:25;;;;;;;27.67;4.30;;;3.10;99.90;;;;;;5021727;28;20033;-65
2023/01/17 14:33:50;;;;;;;10.02;3.13;;;3.10;99.90;;;;;;5027860;28;20060;-64
2023/01/17 14:36:28;;;;;;;26.10;3.78;;;3.00;99.90;;;;;;5025386;28;20029;-64
2023/01/17 14:38:54;;;;;;;25.50;5.07;;;3.00;99.90;;;;;;5028525;28;20044;-65
2023/01/17 14:41:25;;;;;;;14.45;4.25;;;3.00;99.90;;;;;;5022510;28;20393;-65